createdAt,value
2018-04-27T00:01:35.627Z,90.70
2018-04-27T00:04:01.433Z,90.41
2018-04-27T00:06:27.230Z,90.12
2018-04-27T00:08:53.552Z,89.93
2018-04-27T00:11:19.382Z,90.03
2018-04-27T00:13:45.189Z,89.96
2018-04-27T00:16:10.973Z,89.76
2018-04-27T00:18:37.217Z,89.96
2018-04-27T00:21:03.004Z,90.06
2018-04-27T00:23:28.789Z,90.42
2018-04-27T00:25:54.608Z,90.13
2018-04-27T00:28:20.397Z,90.34
2018-04-27T00:30:46.255Z,90.37
2018-04-27T00:33:12.024Z,90.22
2018-04-27T00:35:37.817Z,90.46
2018-04-27T00:38:03.628Z,89.98
2018-04-27T00:40:29.424Z,90.02
2018-04-27T00:42:55.199Z,89.85
2018-04-27T00:45:21.004Z,89.67
2018-04-27T00:47:46.796Z,90.04
2018-04-27T00:50:12.582Z,89.77
2018-04-27T00:52:50.978Z,89.55
2018-04-27T00:55:16.797Z,89.93
2018-04-27T00:57:42.578Z,89.89
2018-04-27T01:00:08.365Z,89.78
2018-04-27T01:02:34.176Z,89.75
2018-04-27T01:04:59.961Z,89.83
2018-04-27T01:07:25.779Z,89.95
2018-04-27T01:09:51.802Z,90.22
2018-04-27T01:12:17.601Z,89.67
2018-04-27T01:14:43.390Z,89.83
2018-04-27T01:17:09.208Z,89.56
2018-04-27T01:19:34.985Z,89.37
2018-04-27T01:22:00.757Z,89.13
2018-04-27T01:24:26.561Z,89.13
2018-04-27T01:26:52.344Z,89.08
2018-04-27T01:29:18.129Z,88.89
2018-04-27T01:31:43.964Z,88.74
2018-04-27T01:34:09.745Z,88.64
2018-04-27T01:36:35.539Z,88.24
2018-04-27T01:39:01.346Z,88.26
2018-04-27T01:41:27.149Z,87.99
2018-04-27T01:43:52.933Z,88.01
2018-04-27T01:46:18.729Z,87.97
2018-04-27T01:48:44.501Z,87.72
2018-04-27T01:51:10.305Z,88.17
2018-04-27T01:53:36.087Z,87.54
2018-04-27T01:56:01.889Z,88.04
2018-04-27T01:58:27.674Z,87.59
2018-04-27T02:00:53.484Z,87.43
2018-04-27T02:03:19.786Z,87.80
2018-04-27T02:05:45.573Z,88.26
2018-04-27T02:08:11.376Z,87.66
2018-04-27T02:10:37.182Z,87.91
2018-04-27T02:13:02.995Z,88.02
2018-04-27T02:15:28.814Z,87.77
2018-04-27T02:17:54.602Z,88.00
2018-04-27T02:20:20.393Z,88.18
2018-04-27T02:22:46.251Z,87.91
2018-04-27T02:25:12.028Z,88.08
2018-04-27T02:27:37.815Z,88.20
2018-04-27T02:30:03.623Z,88.17
2018-04-27T02:32:29.413Z,88.39
2018-04-27T02:34:55.286Z,88.50
2018-04-27T02:37:21.220Z,88.50
2018-04-27T02:39:47.004Z,88.57
2018-04-27T02:42:12.802Z,87.26
2018-04-27T02:44:38.593Z,89.33
2018-04-27T02:47:04.384Z,88.26
2018-04-27T02:49:30.189Z,87.26
2018-04-27T02:51:56.058Z,88.60
2018-04-27T02:54:21.845Z,87.53
2018-04-27T02:56:47.654Z,87.23
2018-04-27T02:59:13.461Z,86.75
2018-04-27T03:01:39.254Z,88.14
2018-04-27T03:04:05.153Z,88.22
2018-04-27T03:06:30.985Z,88.78
2018-04-27T03:08:56.758Z,88.80
2018-04-27T03:11:22.565Z,88.87
2018-04-27T03:13:48.363Z,88.57
2018-04-27T03:16:14.157Z,88.77
2018-04-27T03:18:39.957Z,88.77
2018-04-27T03:21:05.990Z,89.09
2018-04-27T03:23:31.789Z,88.99
2018-04-27T03:25:57.565Z,88.64
2018-04-27T03:28:23.540Z,88.38
2018-04-27T03:30:49.338Z,88.34
2018-04-27T03:33:15.122Z,88.60
2018-04-27T03:35:40.911Z,88.58
2018-04-27T03:38:06.719Z,88.78
2018-04-27T03:40:32.497Z,88.31
2018-04-27T03:42:58.313Z,88.14
2018-04-27T03:45:24.107Z,88.00
2018-04-27T03:47:56.797Z,88.08
2018-04-27T03:50:22.643Z,88.33
2018-04-27T03:52:48.439Z,88.19
2018-04-27T03:55:14.227Z,87.68
2018-04-27T03:57:40.038Z,87.85
2018-04-27T04:00:18.365Z,87.57
2018-04-27T04:02:56.766Z,87.70
2018-04-27T04:05:29.457Z,87.65
2018-04-27T04:07:55.290Z,87.81
2018-04-27T04:10:21.076Z,87.77
2018-04-27T04:12:46.866Z,88.08
2018-04-27T04:15:12.669Z,88.22
2018-04-27T04:17:38.445Z,88.15
2018-04-27T04:20:04.250Z,88.46
2018-04-27T04:22:30.061Z,88.66
2018-04-27T04:24:55.846Z,88.45
2018-04-27T04:27:21.630Z,88.25
2018-04-27T04:29:47.464Z,88.15
2018-04-27T04:32:13.237Z,88.17
2018-04-27T04:34:39.013Z,88.08
2018-04-27T04:37:04.846Z,87.91
2018-04-27T04:39:30.645Z,87.86
2018-04-27T04:41:56.461Z,87.74
2018-04-27T04:44:22.274Z,87.35
2018-04-27T04:46:48.049Z,87.62
2018-04-27T04:49:13.858Z,87.64
2018-04-27T04:51:39.670Z,87.39
2018-04-27T04:54:05.444Z,87.70
2018-04-27T04:56:31.218Z,87.54
2018-04-27T04:58:57.029Z,87.45
2018-04-27T05:01:22.823Z,87.43
2018-04-27T05:03:48.621Z,87.57
2018-04-27T05:06:14.448Z,87.12
2018-04-27T05:08:40.225Z,86.75
2018-04-27T05:11:06.010Z,86.74
2018-04-27T05:13:31.830Z,86.41
2018-04-27T05:15:57.604Z,86.06
2018-04-27T05:21:18.730Z,86.21
2018-04-27T05:23:44.537Z,85.85
2018-04-27T05:26:10.401Z,86.01
2018-04-27T05:28:36.213Z,85.92
2018-04-27T05:31:14.207Z,85.96
2018-04-27T05:33:40.016Z,85.81
2018-04-27T05:36:05.825Z,85.32
2018-04-27T05:38:31.625Z,85.59
2018-04-27T05:40:57.409Z,85.57
2018-04-27T05:43:23.223Z,85.42
2018-04-27T05:45:49.124Z,85.72
2018-04-27T05:48:14.963Z,85.16
2018-04-27T05:50:40.766Z,84.80
2018-04-27T05:53:06.581Z,85.72
2018-04-27T05:55:32.464Z,84.62
2018-04-27T05:57:58.255Z,84.77
2018-04-27T06:00:24.053Z,84.58
2018-04-27T06:02:49.854Z,84.51
2018-04-27T06:05:15.669Z,84.13
2018-04-27T06:07:41.478Z,84.34
2018-04-27T06:10:07.287Z,83.46
2018-04-27T06:12:40.207Z,84.06
2018-04-27T06:15:06.070Z,83.83
2018-04-27T06:17:31.862Z,83.12
2018-04-27T06:19:57.679Z,83.86
2018-04-27T06:22:24.477Z,83.16
2018-04-27T06:24:50.292Z,83.00
2018-04-27T06:27:16.860Z,83.29
2018-04-27T06:29:43.409Z,82.75
2018-04-27T06:32:09.230Z,83.00
2018-04-27T06:34:36.885Z,82.36
2018-04-27T06:37:02.719Z,82.28
2018-04-27T06:39:28.664Z,82.61
2018-04-27T06:41:54.473Z,81.88
2018-04-27T06:44:20.368Z,82.01
2018-04-27T06:46:46.198Z,81.60
2018-04-27T06:49:12.006Z,81.53
2018-04-27T06:51:37.888Z,81.39
2018-04-27T06:54:03.620Z,82.07
2018-04-27T06:56:29.762Z,81.84
2018-04-27T06:58:55.582Z,81.62
2018-04-27T07:01:22.349Z,81.32
2018-04-27T07:03:48.175Z,79.78
2018-04-27T07:06:14.792Z,80.13
2018-04-27T07:08:41.205Z,79.69
2018-04-27T07:11:07.061Z,79.47
2018-04-27T07:13:33.210Z,79.36
2018-04-27T07:15:59.031Z,79.02
2018-04-27T07:18:24.820Z,79.38
2018-04-27T07:20:50.619Z,79.23
2018-04-27T07:23:16.419Z,78.91
2018-04-27T07:25:42.326Z,79.83
2018-04-27T07:28:08.272Z,78.27
2018-04-27T07:30:34.085Z,78.61
2018-04-27T07:32:59.898Z,78.27
2018-04-27T07:35:25.757Z,77.65
2018-04-27T07:37:51.775Z,78.19
2018-04-27T07:40:17.918Z,77.56
2018-04-27T07:42:43.748Z,76.42
2018-04-27T07:45:09.695Z,76.19
2018-04-27T07:47:35.503Z,75.81
2018-04-27T07:50:01.338Z,75.67
2018-04-27T07:52:27.163Z,75.56
2018-04-27T07:54:53.370Z,75.31
2018-04-27T07:57:19.614Z,74.71
2018-04-27T07:59:45.536Z,73.44
2018-04-27T08:02:11.404Z,73.98
2018-04-27T08:04:37.273Z,74.50
2018-04-27T08:07:03.073Z,74.31
2018-04-27T08:09:28.896Z,73.70
2018-04-27T08:11:54.715Z,73.90
2018-04-27T08:14:20.566Z,72.92
2018-04-27T08:16:46.394Z,72.00
2018-04-27T08:19:12.286Z,71.81
2018-04-27T08:21:38.105Z,72.77
2018-04-27T08:24:03.897Z,71.50
2018-04-27T08:26:29.723Z,72.38
2018-04-27T08:28:57.429Z,72.19
2018-04-27T08:31:23.245Z,71.85
2018-04-27T08:33:49.046Z,70.88
2018-04-27T08:36:14.927Z,71.56
2018-04-27T08:38:40.844Z,69.31
2018-04-27T08:41:06.649Z,68.76
2018-04-27T08:43:32.461Z,69.79
2018-04-27T08:45:58.286Z,69.20
2018-04-27T08:48:24.413Z,69.36
2018-04-27T08:50:50.244Z,66.98
2018-04-27T08:53:16.122Z,66.59
2018-04-27T08:55:41.922Z,67.18
2018-04-27T08:58:07.737Z,65.79
2018-04-27T09:00:33.762Z,63.94
2018-04-27T09:02:59.570Z,64.18
2018-04-27T09:05:25.380Z,64.32
2018-04-27T09:07:51.681Z,62.82
2018-04-27T09:10:17.833Z,62.83
2018-04-27T09:12:43.653Z,63.89
2018-04-27T09:15:09.501Z,61.30
2018-04-27T09:17:35.650Z,62.73
2018-04-27T09:20:01.451Z,63.07
2018-04-27T09:22:27.444Z,60.94
2018-04-27T09:24:53.889Z,60.14
2018-04-27T09:27:19.976Z,61.92
2018-04-27T09:29:46.192Z,61.95
2018-04-27T09:32:12.364Z,59.04
2018-04-27T09:34:38.150Z,57.62
2018-04-27T09:37:03.975Z,58.44
2018-04-27T09:39:29.895Z,59.38
2018-04-27T09:41:56.292Z,57.94
2018-04-27T09:44:22.141Z,58.59
2018-04-27T09:46:47.989Z,57.27
2018-04-27T09:49:14.274Z,57.80
2018-04-27T09:51:40.082Z,56.70
2018-04-27T09:54:05.897Z,57.79
2018-04-27T09:56:31.694Z,55.55
2018-04-27T09:58:57.507Z,56.06
2018-04-27T10:01:23.312Z,55.21
2018-04-27T10:03:49.118Z,55.74
2018-04-27T10:06:14.922Z,56.48
2018-04-27T10:08:40.718Z,56.79
2018-04-27T10:11:06.513Z,56.13
2018-04-27T10:13:32.310Z,54.95
2018-04-27T10:15:58.114Z,54.25
2018-04-27T10:18:23.903Z,54.55
2018-04-27T10:20:49.715Z,54.83
2018-04-27T10:23:15.538Z,54.72
2018-04-27T10:25:41.350Z,54.42
2018-04-27T10:28:07.165Z,55.30
2018-04-27T10:30:32.966Z,55.47
2018-04-27T10:32:58.759Z,54.54
2018-04-27T10:35:24.588Z,55.34
2018-04-27T10:37:50.384Z,53.83
2018-04-27T10:40:16.176Z,53.94
2018-04-27T10:42:41.983Z,54.06
2018-04-27T10:45:07.784Z,53.45
2018-04-27T10:47:33.605Z,52.55
2018-04-27T10:49:59.483Z,52.72
2018-04-27T10:52:25.393Z,52.94
2018-04-27T10:54:51.221Z,52.42
2018-04-27T10:57:17.608Z,51.89
2018-04-27T10:59:43.451Z,52.62
2018-04-27T11:02:09.286Z,49.77
2018-04-27T11:04:35.641Z,50.72
2018-04-27T11:07:02.050Z,50.85
2018-04-27T11:09:28.433Z,51.19
2018-04-27T11:11:54.804Z,51.10
2018-04-27T11:14:21.074Z,51.46
2018-04-27T11:16:47.536Z,48.83
2018-04-27T11:19:14.018Z,49.32
2018-04-27T11:21:40.405Z,47.95
2018-04-27T11:24:06.824Z,47.96
2018-04-27T11:26:33.195Z,48.34
2018-04-27T11:28:59.475Z,49.07
2018-04-27T11:31:25.478Z,48.86
2018-04-27T11:33:51.270Z,47.57
2018-04-27T11:36:17.067Z,47.54
2018-04-27T11:38:42.872Z,46.32
2018-04-27T11:41:08.683Z,46.35
2018-04-27T11:43:34.449Z,45.54
2018-04-27T11:46:00.242Z,47.09
2018-04-27T11:48:26.162Z,46.97
2018-04-27T11:50:51.978Z,46.13
2018-04-27T11:53:17.838Z,46.66
2018-04-27T11:55:43.949Z,47.08
2018-04-27T11:58:09.752Z,46.89
2018-04-27T12:00:35.595Z,45.64
2018-04-27T12:03:01.396Z,46.83
2018-04-27T12:05:27.409Z,46.86
2018-04-27T12:07:53.228Z,46.78
2018-04-27T12:10:19.042Z,46.39
2018-04-27T12:12:44.997Z,46.81
2018-04-27T12:15:10.820Z,45.96
2018-04-27T12:17:36.963Z,45.66
2018-04-27T12:20:02.755Z,46.99
2018-04-27T12:22:28.598Z,46.62
2018-04-27T12:24:54.401Z,45.89
2018-04-27T12:27:20.178Z,46.93
2018-04-27T12:29:46.149Z,46.86
2018-04-27T12:32:11.942Z,49.40
2018-04-27T12:34:37.751Z,45.66
2018-04-27T12:37:03.585Z,45.50
2018-04-27T12:39:29.387Z,45.79
2018-04-27T12:41:55.217Z,45.51
2018-04-27T12:44:21.023Z,42.92
2018-04-27T12:46:46.818Z,44.12
2018-04-27T12:49:12.615Z,45.07
2018-04-27T12:51:38.433Z,43.93
2018-04-27T12:54:04.239Z,43.56
2018-04-27T12:56:30.052Z,42.60
2018-04-27T12:58:56.135Z,42.57
2018-04-27T13:01:21.920Z,44.43
2018-04-27T13:03:47.718Z,46.10
2018-04-27T13:06:13.526Z,44.16
2018-04-27T13:08:39.332Z,44.50
2018-04-27T13:11:05.158Z,47.30
2018-04-27T13:13:30.968Z,46.15
2018-04-27T13:15:56.769Z,46.21
2018-04-27T13:18:22.678Z,46.86
2018-04-27T13:20:48.462Z,46.61
2018-04-27T13:23:14.249Z,45.92
2018-04-27T13:25:40.133Z,45.95
2018-04-27T13:28:05.925Z,44.90
2018-04-27T13:30:31.733Z,45.91
2018-04-27T13:32:57.521Z,45.39
2018-04-27T13:35:23.307Z,45.45
2018-04-27T13:37:49.135Z,45.98
2018-04-27T13:40:14.955Z,45.25
2018-04-27T13:42:40.740Z,46.37
2018-04-27T13:45:06.545Z,46.09
2018-04-27T13:47:32.353Z,45.10
2018-04-27T13:49:58.146Z,44.24
2018-04-27T13:52:23.944Z,43.98
2018-04-27T13:54:49.863Z,44.06
2018-04-27T13:57:15.703Z,44.93
2018-04-27T13:59:41.481Z,42.66
2018-04-27T14:02:07.306Z,43.06
2018-04-27T14:04:33.107Z,43.94
2018-04-27T14:06:58.902Z,45.69
2018-04-27T14:09:24.729Z,44.99
2018-04-27T14:11:50.553Z,45.51
2018-04-27T14:14:16.378Z,46.30
2018-04-27T14:16:42.161Z,45.91
2018-04-27T14:19:07.976Z,48.58
2018-04-27T14:21:33.820Z,45.43
2018-04-27T14:23:59.597Z,44.36
2018-04-27T14:26:25.395Z,46.64
2018-04-27T14:28:51.191Z,45.36
2018-04-27T14:31:16.995Z,44.25
2018-04-27T14:33:42.892Z,44.15
2018-04-27T14:36:08.702Z,44.53
2018-04-27T14:38:34.490Z,43.94
2018-04-27T14:41:00.371Z,43.11
2018-04-27T14:43:26.135Z,41.73
2018-04-27T14:45:51.918Z,42.12
2018-04-27T14:48:17.753Z,42.02
2018-04-27T14:50:43.554Z,42.15
2018-04-27T14:53:09.339Z,42.22
2018-04-27T14:55:35.194Z,42.14
2018-04-27T14:58:00.997Z,43.62
2018-04-27T15:00:26.836Z,42.44
2018-04-27T15:02:52.670Z,41.01
2018-04-27T15:05:18.450Z,42.26
2018-04-27T15:07:44.246Z,42.02
2018-04-27T15:10:10.293Z,41.32
2018-04-27T15:12:36.167Z,42.10
2018-04-27T15:15:02.157Z,42.29
2018-04-27T15:17:28.974Z,42.46
2018-04-27T15:19:54.847Z,42.70
2018-04-27T15:22:20.663Z,44.00
2018-04-27T15:24:46.473Z,43.38
2018-04-27T15:27:12.268Z,42.13
2018-04-27T15:29:39.644Z,43.07
2018-04-27T15:32:05.521Z,42.83
2018-04-27T15:34:31.353Z,43.51
2018-04-27T15:36:57.161Z,43.51
2018-04-27T15:39:22.966Z,43.54
2018-04-27T15:41:48.812Z,44.01
2018-04-27T15:44:14.678Z,43.40
2018-04-27T15:46:40.966Z,44.49
2018-04-27T15:49:07.142Z,44.25
2018-04-27T15:51:33.647Z,44.47
2018-04-27T15:53:59.455Z,44.70
2018-04-27T15:56:26.128Z,45.47
2018-04-27T15:58:51.991Z,45.89
2018-04-27T16:01:17.832Z,50.22
2018-04-27T16:03:43.647Z,43.34
2018-04-27T16:06:09.749Z,43.37
2018-04-27T16:08:35.699Z,43.11
2018-04-27T16:11:02.228Z,44.22
2018-04-27T16:16:31.431Z,45.54
2018-04-27T16:18:59.209Z,45.48
2018-04-27T16:21:25.083Z,44.76
2018-04-27T16:23:50.959Z,45.55
2018-04-27T16:26:16.855Z,44.94
2018-04-27T16:28:42.698Z,45.36
2018-04-27T16:31:08.538Z,45.24
2018-04-27T16:33:34.341Z,42.57
2018-04-27T16:36:00.458Z,42.73
2018-04-27T16:38:26.278Z,43.11
2018-04-27T16:40:52.086Z,42.50
2018-04-27T16:43:17.953Z,42.72
2018-04-27T16:45:43.847Z,47.87
2018-04-27T16:48:09.643Z,44.47
2018-04-27T16:50:35.460Z,41.91
2018-04-27T16:53:01.305Z,43.29
2018-04-27T16:55:27.115Z,42.52
2018-04-27T16:57:52.922Z,42.29
2018-04-27T17:00:18.999Z,45.79
2018-04-27T17:02:44.797Z,42.54
2018-04-27T17:05:10.595Z,44.34
2018-04-27T17:07:36.410Z,44.79
2018-04-27T17:10:02.235Z,43.12
2018-04-27T17:12:28.085Z,43.89
2018-04-27T17:14:53.893Z,43.58
2018-04-27T17:17:19.701Z,44.04
2018-04-27T17:19:45.498Z,43.52
2018-04-27T17:22:11.313Z,43.71
2018-04-27T17:24:37.145Z,42.85
2018-04-27T17:27:02.963Z,43.57
2018-04-27T17:29:28.777Z,43.57
2018-04-27T17:31:54.596Z,44.61
2018-04-27T17:34:20.401Z,45.12
2018-04-27T17:36:46.238Z,45.26
2018-04-27T17:39:12.030Z,44.48
2018-04-27T17:41:37.830Z,45.01
2018-04-27T17:44:03.897Z,45.50
2018-04-27T17:46:29.717Z,45.85
2018-04-27T17:48:55.526Z,46.03
2018-04-27T17:51:21.354Z,46.21
2018-04-27T17:53:47.169Z,47.04
2018-04-27T17:56:12.982Z,46.86
2018-04-27T17:58:39.182Z,47.22
2018-04-27T18:01:05.008Z,46.04
2018-04-27T18:03:30.811Z,46.02
2018-04-27T18:05:56.916Z,45.87
2018-04-27T18:08:22.715Z,45.58
2018-04-27T18:10:48.511Z,45.55
2018-04-27T18:13:14.338Z,46.41
2018-04-27T18:15:40.137Z,46.42
2018-04-27T18:18:05.993Z,46.46
2018-04-27T18:20:31.785Z,46.17
2018-04-27T18:22:57.655Z,46.09
2018-04-27T18:25:23.433Z,46.47
2018-04-27T18:27:49.320Z,50.30
2018-04-27T18:30:15.178Z,49.03
2018-04-27T18:32:41.087Z,52.16
2018-04-27T18:35:06.894Z,50.05
2018-04-27T18:37:32.710Z,50.02
2018-04-27T18:39:58.520Z,51.28
2018-04-27T18:42:24.358Z,52.29
2018-04-27T18:44:50.229Z,55.12
2018-04-27T18:47:16.035Z,54.25
2018-04-27T18:49:41.877Z,53.27
2018-04-27T18:52:07.690Z,56.91
2018-04-27T18:54:33.532Z,52.48
2018-04-27T18:56:59.357Z,59.64
2018-04-27T18:59:25.170Z,53.73
2018-04-27T19:01:50.977Z,57.64
2018-04-27T19:04:16.982Z,54.09
2018-04-27T19:06:42.782Z,53.72
2018-04-27T19:09:08.603Z,58.61
2018-04-27T19:11:34.425Z,56.79
2018-04-27T19:14:03.105Z,58.39
2018-04-27T19:16:28.937Z,58.81
2018-04-27T19:18:55.326Z,55.64
2018-04-27T19:21:21.158Z,52.33
2018-04-27T19:23:46.961Z,57.72
2018-04-27T19:26:15.002Z,56.27
2018-04-27T19:28:40.829Z,60.11
2018-04-27T19:31:06.650Z,57.83
2018-04-27T19:33:32.502Z,56.47
2018-04-27T19:35:58.355Z,56.11
2018-04-27T19:38:24.173Z,60.98
2018-04-27T19:40:49.990Z,55.28
2018-04-27T19:43:15.806Z,56.10
2018-04-27T19:45:41.617Z,58.22
2018-04-27T19:48:07.409Z,59.08
2018-04-27T19:50:33.237Z,59.84
2018-04-27T19:52:59.081Z,58.95
2018-04-27T19:55:24.962Z,56.70
2018-04-27T19:57:50.835Z,57.05
2018-04-27T20:00:17.678Z,57.58
2018-04-27T20:02:43.548Z,63.72
2018-04-27T20:05:10.353Z,60.23
2018-04-27T20:07:36.773Z,57.87
2018-04-27T20:10:04.671Z,57.82
2018-04-27T20:12:30.519Z,58.39
2018-04-27T20:17:48.034Z,60.03
2018-04-27T20:20:13.868Z,62.71
2018-04-27T20:22:39.692Z,59.54
2018-04-27T20:25:05.661Z,59.21
2018-04-27T20:27:32.338Z,60.25
2018-04-27T20:30:07.261Z,60.33
2018-04-27T20:32:33.085Z,59.75
2018-04-27T20:34:58.889Z,62.93
2018-04-27T20:37:24.721Z,60.07
2018-04-27T20:39:50.681Z,59.07
2018-04-27T20:42:16.833Z,61.14
2018-04-27T20:44:42.673Z,62.90
2018-04-27T20:47:08.518Z,60.66
2018-04-27T20:49:34.346Z,60.68
2018-04-27T20:52:00.263Z,62.13
2018-04-27T20:54:27.481Z,61.35
2018-04-27T20:56:53.321Z,64.34
2018-04-27T20:59:19.129Z,61.46
2018-04-27T21:01:46.410Z,63.72
2018-04-27T21:04:12.549Z,61.52
2018-04-27T21:06:38.428Z,61.74
2018-04-27T21:09:05.246Z,62.07
2018-04-27T21:11:33.194Z,62.20
2018-04-27T21:13:59.009Z,62.26
2018-04-27T21:16:24.802Z,63.71
2018-04-27T21:18:50.643Z,63.47
2018-04-27T21:21:16.438Z,64.21
2018-04-27T21:23:42.233Z,71.47
2018-04-27T21:26:08.074Z,64.72
2018-04-27T21:28:33.886Z,63.90
2018-04-27T21:31:00.570Z,65.23
2018-04-27T21:33:26.418Z,65.98
2018-04-27T21:35:54.221Z,65.08
2018-04-27T21:41:24.844Z,66.18
2018-04-27T21:43:51.634Z,66.27
2018-04-27T21:46:26.894Z,67.64
2018-04-27T21:48:52.819Z,65.21
2018-04-27T21:51:29.663Z,65.07
2018-04-27T21:53:55.500Z,65.80
2018-04-27T21:56:21.318Z,67.49
2018-04-27T21:58:47.164Z,65.84
2018-04-27T22:01:13.017Z,66.78
2018-04-27T22:03:38.848Z,66.05
2018-04-27T22:06:06.662Z,66.50
2018-04-27T22:11:38.108Z,65.55
2018-04-27T22:14:04.768Z,66.54
2018-04-27T22:16:46.432Z,67.46
2018-04-27T22:19:16.214Z,68.01
2018-04-27T22:21:42.070Z,67.76
2018-04-27T22:24:07.875Z,67.40
2018-04-27T22:26:33.715Z,67.59
2018-04-27T22:29:00.094Z,68.66
2018-04-27T22:31:25.925Z,69.50
2018-04-27T22:34:05.626Z,67.34
2018-04-27T22:36:42.449Z,67.94
2018-04-27T22:39:24.364Z,72.22
2018-04-27T22:41:55.005Z,68.36
2018-04-27T22:44:20.814Z,68.40
2018-04-27T22:46:46.647Z,69.00
2018-04-27T22:49:14.422Z,69.04
2018-04-27T22:51:41.322Z,69.11
2018-04-27T22:54:07.148Z,70.16
2018-04-27T22:59:25.999Z,69.36
2018-04-27T23:01:51.841Z,69.18
2018-04-27T23:04:17.671Z,69.49
2018-04-27T23:06:43.514Z,70.23
2018-04-27T23:09:09.351Z,69.92
2018-04-27T23:11:35.167Z,70.98
2018-04-27T23:14:02.020Z,70.52
2018-04-27T23:16:27.864Z,71.23
2018-04-27T23:18:54.282Z,70.65
2018-04-27T23:21:56.718Z,72.22
2018-04-27T23:24:22.537Z,72.75
2018-04-27T23:26:49.470Z,73.29
2018-04-27T23:29:15.310Z,71.22
2018-04-27T23:31:42.629Z,74.59
2018-04-27T23:34:08.522Z,72.61
2018-04-27T23:36:34.349Z,72.39
2018-04-27T23:39:00.199Z,74.03
2018-04-27T23:41:26.080Z,72.31
2018-04-27T23:43:51.859Z,73.55
2018-04-27T23:46:21.431Z,71.96
2018-04-27T23:48:47.350Z,72.19
2018-04-27T23:51:13.185Z,71.29
2018-04-27T23:53:39.023Z,72.65
2018-04-27T23:56:07.761Z,73.56
2018-04-27T23:58:34.571Z,72.29
